Карточка аэропорта UNEE

Внимание!
Информация на этой странице в стадии наполнения.
Если вы не увидели какой-то информации, или заметили неточность - пожалуйста сообщите нам!
Спасибо!
Команда RU-STAFF
Название аэропортаКемерово
Название аэропорта (англ.)Kemerovo
Превышение873 ft. (266.1 m.)
Координаты55°16.2', 86°6.6'
Высота перехода500m
Эшелон переходаQFE>=760mm:FL030; QFE<=759=>733mm:FL040; QFE<=732mm:FL050
Коды ответчика5260-5267
Зона ОрВДНовосибирск РПИ (UNNT)
Данные METARUNEE 232200Z 09002MPS 0050 R23/0100N FG VV001 09/09 Q1014 R23/190055 NOSIG RMK QBB030 QFE737
Проноз погоды (TAF)UNEE 232000Z 2321/2421 16003G08MPS 0150 FG OVC001 BKN016CB TX21/2406Z TN09/2322Z TEMPO 2321/2402 1500 -TSRA BR BKN005 BKN011CB FM240200 20008G15MPS 8000 BKN040CB TEMPO 2402/2415 25010G20MPS -TSRA BKN016CB BECMG 2415/2416 34005G10MPS
NOTAMshow/hide NOTAM
AWOS   TABLE

Информация о ВПП

ВПП Длина ВПП (м.) Покрытие Курс ВПП Частота ILS
053200Цементобетон46 
233200Цементобетон226109.1

Диспетчерские позиции

Позывной Наименование органа УВД Частота
UNEE_TWRКемерово-Старт118.3
UNEE_APPКемерово-Подход125.5



Спутниковое изображение